createdAt,value
2017-08-08T00:00:25.574Z,964.28
2017-08-08T00:01:25.571Z,964.29
2017-08-08T00:02:25.569Z,964.29
2017-08-08T00:03:25.565Z,964.26
2017-08-08T00:04:25.564Z,964.22
2017-08-08T00:05:25.560Z,964.22
2017-08-08T00:06:25.558Z,964.2
2017-08-08T00:07:25.557Z,964.19
2017-08-08T00:08:25.555Z,964.15
2017-08-08T00:09:25.551Z,964.18
2017-08-08T00:10:25.550Z,964.15
2017-08-08T00:11:25.547Z,964.14
2017-08-08T00:12:25.644Z,964.15
2017-08-08T00:13:25.543Z,964.15
2017-08-08T00:14:25.540Z,964.1
2017-08-08T00:15:25.537Z,964.13
2017-08-08T00:16:25.535Z,964.13
2017-08-08T00:17:25.634Z,964.15
2017-08-08T00:18:25.530Z,964.16
2017-08-08T00:19:25.529Z,964.15
2017-08-08T00:20:25.528Z,964.14
2017-08-08T00:21:25.525Z,964.14
2017-08-08T00:22:25.622Z,964.11
2017-08-08T00:23:25.520Z,964.14
2017-08-08T00:24:25.517Z,964.1
2017-08-08T00:25:25.515Z,964.1
2017-08-08T00:26:25.512Z,964.05
2017-08-08T00:27:25.509Z,964.09
2017-08-08T00:28:25.508Z,964.02
2017-08-08T00:29:25.505Z,963.99
2017-08-08T00:30:25.503Z,963.96
2017-08-08T00:31:25.501Z,963.94
2017-08-08T00:32:25.498Z,963.9
2017-08-08T00:33:25.597Z,963.9
2017-08-08T00:34:25.494Z,963.86
2017-08-08T00:35:25.489Z,963.84
2017-08-08T00:36:25.489Z,963.87
2017-08-08T00:37:25.586Z,963.85
2017-08-08T00:38:25.485Z,963.82
2017-08-08T00:39:25.482Z,963.8
2017-08-08T00:40:25.480Z,963.81
2017-08-08T00:41:25.476Z,963.76
2017-08-08T00:42:25.474Z,963.81
2017-08-08T00:43:25.574Z,963.85
2017-08-08T00:44:25.572Z,963.8
2017-08-08T00:45:25.473Z,963.84
2017-08-08T00:46:25.466Z,963.8
2017-08-08T00:47:25.464Z,963.83
2017-08-08T00:48:25.460Z,963.82
2017-08-08T00:49:25.456Z,963.8
2017-08-08T00:50:25.455Z,963.78
2017-08-08T00:51:25.453Z,963.79
2017-08-08T00:52:25.449Z,963.76
2017-08-08T00:53:25.448Z,963.75
2017-08-08T00:54:25.445Z,963.78
2017-08-08T00:55:25.442Z,963.81
2017-08-08T00:56:25.440Z,963.84
2017-08-08T00:57:25.439Z,963.83
2017-08-08T00:58:25.435Z,963.85
2017-08-08T00:59:25.434Z,963.88
2017-08-08T01:00:25.431Z,963.91
2017-08-08T01:01:25.529Z,963.97
2017-08-08T01:02:25.426Z,963.96
2017-08-08T01:03:25.422Z,963.98
2017-08-08T01:04:25.422Z,964.01
2017-08-08T01:05:25.417Z,964
2017-08-08T01:06:25.416Z,964
2017-08-08T01:07:25.414Z,963.98
2017-08-08T01:08:25.412Z,963.98
2017-08-08T01:09:25.409Z,964.01
2017-08-08T01:10:25.407Z,963.99
2017-08-08T01:11:25.404Z,963.96
2017-08-08T01:12:25.401Z,963.98
2017-08-08T01:13:25.399Z,964.03
2017-08-08T01:14:25.401Z,964.06
2017-08-08T01:15:25.394Z,964.07
2017-08-08T01:16:25.400Z,964.07
2017-08-08T01:17:25.390Z,964.1
2017-08-08T01:18:25.384Z,964.09
2017-08-08T01:19:25.383Z,964.09
2017-08-08T01:20:25.385Z,964.04
2017-08-08T01:21:25.380Z,964.04
2017-08-08T01:22:25.377Z,964.01
2017-08-08T01:23:25.376Z,964.01
2017-08-08T01:24:25.374Z,963.98
2017-08-08T01:25:25.369Z,963.97
2017-08-08T01:26:25.369Z,963.94
2017-08-08T01:27:25.366Z,963.93
2017-08-08T01:28:25.363Z,963.93
2017-08-08T01:29:25.359Z,963.95
2017-08-08T01:30:25.363Z,963.96
2017-08-08T01:31:25.356Z,963.97
2017-08-08T01:32:25.354Z,963.96
2017-08-08T01:33:25.349Z,963.94
2017-08-08T01:34:25.347Z,963.95
2017-08-08T01:35:25.348Z,963.98
2017-08-08T01:36:25.349Z,963.95
2017-08-08T01:37:25.339Z,964.02
2017-08-08T01:38:25.338Z,964.04
2017-08-08T01:39:25.335Z,964
2017-08-08T01:40:25.331Z,964.02
2017-08-08T01:41:25.331Z,964
2017-08-08T01:42:25.328Z,964
2017-08-08T01:43:25.326Z,963.99
2017-08-08T01:44:25.323Z,964.03
2017-08-08T01:45:25.321Z,964.04
2017-08-08T01:46:25.318Z,964.02
2017-08-08T01:47:25.315Z,964
2017-08-08T01:48:25.312Z,963.93
2017-08-08T01:49:25.310Z,963.88
2017-08-08T01:50:25.307Z,963.83
2017-08-08T01:51:25.305Z,963.76
2017-08-08T01:52:25.301Z,963.73
2017-08-08T01:53:25.299Z,963.73
2017-08-08T01:54:25.297Z,963.74
2017-08-08T01:55:25.295Z,963.79
2017-08-08T01:56:25.294Z,963.77
2017-08-08T01:57:25.291Z,963.74
2017-08-08T01:58:25.287Z,963.75
2017-08-08T01:59:25.286Z,963.73
2017-08-08T02:00:25.282Z,963.72
2017-08-08T02:01:25.280Z,963.74
2017-08-08T02:02:25.277Z,963.71
2017-08-08T02:03:25.277Z,963.76
2017-08-08T02:04:25.272Z,963.75
2017-08-08T02:05:25.269Z,963.76
2017-08-08T02:06:25.266Z,963.72
2017-08-08T02:07:25.266Z,963.69
2017-08-08T02:08:25.264Z,963.72
2017-08-08T02:09:25.259Z,963.73
2017-08-08T02:10:25.258Z,963.75
2017-08-08T02:11:25.254Z,963.78
2017-08-08T02:12:25.252Z,963.8
2017-08-08T02:13:25.248Z,963.79
2017-08-08T02:14:25.248Z,963.77
2017-08-08T02:15:25.244Z,963.77
2017-08-08T02:16:25.242Z,963.77
2017-08-08T02:17:25.240Z,963.75
2017-08-08T02:18:25.237Z,963.74
2017-08-08T02:19:25.235Z,963.78
2017-08-08T02:20:25.230Z,963.71
2017-08-08T02:21:25.231Z,963.71
2017-08-08T02:22:25.226Z,963.73
2017-08-08T02:23:25.224Z,963.71
2017-08-08T02:24:25.220Z,963.71
2017-08-08T02:25:25.368Z,963.75
2017-08-08T02:26:25.216Z,963.7
2017-08-08T02:27:25.215Z,963.71
2017-08-08T02:28:25.211Z,963.71
2017-08-08T02:29:25.208Z,963.71
2017-08-08T02:30:25.354Z,963.67
2017-08-08T02:31:25.202Z,963.69
2017-08-08T02:32:25.200Z,963.66
2017-08-08T02:33:25.198Z,963.63
2017-08-08T02:34:25.197Z,963.65
2017-08-08T02:35:25.194Z,963.68
2017-08-08T02:36:25.340Z,963.65
2017-08-08T02:37:25.188Z,963.63
2017-08-08T02:38:25.183Z,963.59
2017-08-08T02:39:25.181Z,963.58
2017-08-08T02:40:25.180Z,963.55
2017-08-08T02:41:25.177Z,963.55
2017-08-08T02:42:25.175Z,963.52
2017-08-08T02:43:25.171Z,963.5
2017-08-08T02:44:25.272Z,963.5
2017-08-08T02:45:25.166Z,963.45
2017-08-08T02:46:25.165Z,963.42
2017-08-08T02:47:25.161Z,963.39
2017-08-08T02:48:25.159Z,963.35
2017-08-08T02:49:25.155Z,963.34
2017-08-08T02:50:25.154Z,963.35
2017-08-08T02:51:25.150Z,963.33
2017-08-08T02:52:25.148Z,963.35
2017-08-08T02:53:25.147Z,963.3
2017-08-08T02:54:25.142Z,963.28
2017-08-08T02:55:25.140Z,963.26
2017-08-08T02:56:25.138Z,963.23
2017-08-08T02:57:25.134Z,963.2
2017-08-08T02:58:25.131Z,963.17
2017-08-08T02:59:25.129Z,963.15
2017-08-08T03:00:25.126Z,963.13
2017-08-08T03:01:25.124Z,963.12
2017-08-08T03:02:25.123Z,963.11
2017-08-08T03:03:25.118Z,963.04
2017-08-08T03:04:25.115Z,963.03
2017-08-08T03:05:25.114Z,963.05
2017-08-08T03:06:25.210Z,963.07
2017-08-08T03:07:25.110Z,963.11
2017-08-08T03:08:25.106Z,963.14
2017-08-08T03:09:25.102Z,963.15
2017-08-08T03:10:25.100Z,963.15
2017-08-08T03:11:25.098Z,963.12
2017-08-08T03:12:25.095Z,963.11
2017-08-08T03:13:25.092Z,963.08
2017-08-08T03:14:25.090Z,963.1
2017-08-08T03:15:25.087Z,963.05
2017-08-08T03:16:25.084Z,963.06
2017-08-08T03:17:25.081Z,963.06
2017-08-08T03:18:25.079Z,963.06
2017-08-08T03:19:25.075Z,963.07
2017-08-08T03:20:25.072Z,963.06
2017-08-08T03:21:25.171Z,963.08
2017-08-08T03:22:25.068Z,963.03
2017-08-08T03:23:25.065Z,963.06
2017-08-08T03:24:25.063Z,963.07
2017-08-08T03:25:25.059Z,963.08
2017-08-08T03:26:25.057Z,963.01
2017-08-08T03:27:25.055Z,962.97
2017-08-08T03:28:25.052Z,962.9
2017-08-08T03:29:25.049Z,962.87
2017-08-08T03:30:25.047Z,962.83
2017-08-08T03:31:25.046Z,962.84
2017-08-08T03:32:25.043Z,962.85
2017-08-08T03:33:25.039Z,962.8
2017-08-08T03:34:25.035Z,962.77
2017-08-08T03:35:25.035Z,962.79
2017-08-08T03:36:25.031Z,962.85
2017-08-08T03:37:25.028Z,962.85
2017-08-08T03:38:25.026Z,962.84
2017-08-08T03:39:25.023Z,962.85
2017-08-08T03:40:25.020Z,962.85
2017-08-08T03:41:25.018Z,962.91
2017-08-08T03:42:25.015Z,962.96
2017-08-08T03:43:25.012Z,962.98
2017-08-08T03:44:25.010Z,963
2017-08-08T03:45:25.008Z,963.04
2017-08-08T03:46:25.004Z,963
2017-08-08T03:47:25.002Z,962.98
2017-08-08T03:48:24.999Z,962.97
2017-08-08T03:49:24.996Z,962.98
2017-08-08T03:50:24.995Z,962.98
2017-08-08T03:51:24.993Z,962.93
2017-08-08T03:52:24.988Z,962.97
2017-08-08T03:53:24.985Z,962.94
2017-08-08T03:54:24.984Z,962.98
2017-08-08T03:55:25.006Z,962.97
2017-08-08T03:56:24.978Z,962.97
2017-08-08T03:57:24.974Z,962.98
2017-08-08T03:58:24.971Z,962.94
2017-08-08T03:59:24.969Z,962.92
2017-08-08T04:00:24.966Z,962.95
2017-08-08T04:01:24.963Z,962.92
2017-08-08T04:02:24.961Z,962.89
2017-08-08T04:03:24.957Z,962.86
2017-08-08T04:04:24.955Z,962.82
2017-08-08T04:05:24.954Z,962.83
2017-08-08T04:06:24.949Z,962.8
2017-08-08T04:07:24.948Z,962.81
2017-08-08T04:08:24.945Z,962.8
2017-08-08T04:09:24.943Z,962.8
2017-08-08T04:10:24.942Z,962.77
2017-08-08T04:11:24.937Z,962.75
2017-08-08T04:12:24.933Z,962.78
2017-08-08T04:13:24.929Z,962.73
2017-08-08T04:14:24.927Z,962.69
2017-08-08T04:15:24.926Z,962.67
2017-08-08T04:16:24.923Z,962.63
2017-08-08T04:17:24.919Z,962.6
2017-08-08T04:18:24.917Z,962.61
2017-08-08T04:19:24.914Z,962.6
2017-08-08T04:20:24.912Z,962.57
2017-08-08T04:21:24.908Z,962.58
2017-08-08T04:22:24.906Z,962.53
2017-08-08T04:23:24.904Z,962.5
2017-08-08T04:24:24.901Z,962.46
2017-08-08T04:25:24.897Z,962.45
2017-08-08T04:26:24.895Z,962.45
2017-08-08T04:27:24.893Z,962.37
2017-08-08T04:28:24.889Z,962.34
2017-08-08T04:29:24.888Z,962.33
2017-08-08T04:30:24.884Z,962.33
2017-08-08T04:31:24.882Z,962.32
2017-08-08T04:32:24.879Z,962.28
2017-08-08T04:33:24.875Z,962.24
2017-08-08T04:34:24.873Z,962.17
2017-08-08T04:35:24.871Z,962.15
2017-08-08T04:36:24.868Z,962.22
2017-08-08T04:37:24.864Z,962.14
2017-08-08T04:38:24.863Z,962.12
2017-08-08T04:39:24.859Z,962.14
2017-08-08T04:40:24.857Z,962.13
2017-08-08T04:41:24.955Z,962.1
2017-08-08T04:42:25.001Z,962.08
2017-08-08T04:43:24.848Z,962.07
2017-08-08T04:44:24.846Z,962.03
2017-08-08T04:45:24.850Z,962.03
2017-08-08T04:46:24.840Z,962.03
2017-08-08T04:47:24.838Z,962
2017-08-08T04:48:24.936Z,961.92
2017-08-08T04:49:24.833Z,961.96
2017-08-08T04:50:24.829Z,961.94
2017-08-08T04:51:24.828Z,961.95
2017-08-08T04:52:24.826Z,961.99
2017-08-08T04:53:24.822Z,961.95
2017-08-08T04:54:24.819Z,961.98
2017-08-08T04:55:24.818Z,961.97
2017-08-08T04:56:24.814Z,962
2017-08-08T04:57:24.811Z,962.05
2017-08-08T04:58:24.810Z,962.02
2017-08-08T04:59:24.957Z,962.04
2017-08-08T05:00:24.803Z,962.01
2017-08-08T05:01:24.802Z,961.96
2017-08-08T05:02:24.799Z,961.93
2017-08-08T05:03:24.796Z,961.92
2017-08-08T05:04:24.794Z,961.85
2017-08-08T05:05:24.791Z,961.91
2017-08-08T05:06:24.790Z,961.92
2017-08-08T05:07:24.788Z,961.98
2017-08-08T05:08:24.784Z,962.05
2017-08-08T05:09:24.782Z,962.1
2017-08-08T05:10:24.779Z,962.17
2017-08-08T05:11:24.779Z,962.23
2017-08-08T05:12:24.775Z,962.3
2017-08-08T05:13:24.772Z,962.37
2017-08-08T05:14:24.770Z,962.41
2017-08-08T05:15:24.769Z,962.43
2017-08-08T05:16:24.765Z,962.44
2017-08-08T05:17:24.764Z,962.41
2017-08-08T05:18:24.760Z,962.42
2017-08-08T05:19:24.758Z,962.42
2017-08-08T05:20:24.757Z,962.4
2017-08-08T05:21:24.755Z,962.39
2017-08-08T05:22:24.752Z,962.36
2017-08-08T05:23:24.753Z,962.34
2017-08-08T05:24:24.748Z,962.39
2017-08-08T05:25:24.747Z,962.42
2017-08-08T05:26:24.743Z,962.38
2017-08-08T05:27:24.743Z,962.33
2017-08-08T05:28:24.741Z,962.29
2017-08-08T05:29:24.740Z,962.17
2017-08-08T05:30:24.737Z,962.18
2017-08-08T05:31:24.735Z,962.18
2017-08-08T05:32:24.834Z,962.09
2017-08-08T05:33:24.731Z,962.1
2017-08-08T05:34:24.729Z,962.1
2017-08-08T05:35:24.727Z,962.12
2017-08-08T05:36:24.725Z,962.08
2017-08-08T05:37:24.723Z,962.08
2017-08-08T05:38:24.721Z,962.03
2017-08-08T05:39:24.720Z,962.06
2017-08-08T05:40:24.720Z,962.11
2017-08-08T05:41:24.717Z,962.06
2017-08-08T05:42:24.716Z,961.98
2017-08-08T05:43:24.713Z,961.97
2017-08-08T05:44:24.711Z,961.98
2017-08-08T05:45:24.710Z,961.99
2017-08-08T05:46:24.710Z,961.99
2017-08-08T05:47:24.709Z,962.01
2017-08-08T05:48:24.707Z,962
2017-08-08T05:49:24.704Z,961.97
2017-08-08T05:50:24.705Z,961.95
2017-08-08T05:51:24.705Z,961.88
2017-08-08T05:52:24.703Z,961.84
2017-08-08T05:53:24.701Z,961.83
2017-08-08T05:54:24.701Z,961.77
2017-08-08T05:55:24.701Z,961.75
2017-08-08T05:56:24.704Z,961.74
2017-08-08T05:57:24.699Z,961.75
2017-08-08T05:58:24.700Z,961.73
2017-08-08T05:59:24.696Z,961.72
2017-08-08T06:00:24.699Z,961.72
2017-08-08T06:01:24.696Z,961.73
2017-08-08T06:02:24.696Z,961.74
2017-08-08T06:03:24.696Z,961.76
2017-08-08T06:04:24.696Z,961.72
2017-08-08T06:05:24.695Z,961.82
2017-08-08T06:06:24.695Z,961.8
2017-08-08T06:07:24.695Z,961.83
2017-08-08T06:08:24.695Z,961.86
2017-08-08T06:09:24.694Z,961.91
2017-08-08T06:10:24.696Z,961.96
2017-08-08T06:11:24.693Z,961.97
2017-08-08T06:12:24.693Z,962.03
2017-08-08T06:13:24.693Z,962.06
2017-08-08T06:14:24.692Z,962.05
2017-08-08T06:15:24.692Z,962.04
2017-08-08T06:16:24.694Z,962.02
2017-08-08T06:17:24.843Z,961.98
2017-08-08T06:18:24.691Z,961.97
2017-08-08T06:19:24.691Z,961.95
2017-08-08T06:20:24.690Z,961.93
2017-08-08T06:21:24.690Z,961.93
2017-08-08T06:22:24.687Z,961.93
2017-08-08T06:23:24.838Z,961.89
2017-08-08T06:24:24.687Z,961.86
2017-08-08T06:25:24.687Z,961.82
2017-08-08T06:26:24.684Z,961.83
2017-08-08T06:27:24.684Z,961.81
2017-08-08T06:28:24.683Z,961.83
2017-08-08T06:29:24.681Z,961.86
2017-08-08T06:30:24.680Z,961.91
2017-08-08T06:31:24.679Z,961.9
2017-08-08T06:32:24.677Z,961.91
2017-08-08T06:33:24.676Z,961.87
2017-08-08T06:34:24.676Z,961.89
2017-08-08T06:35:24.774Z,961.87
2017-08-08T06:36:24.673Z,961.84
2017-08-08T06:37:24.678Z,961.91
2017-08-08T06:38:24.672Z,961.81
2017-08-08T06:39:24.671Z,961.82
2017-08-08T06:40:24.670Z,961.85
2017-08-08T06:41:24.669Z,961.82
2017-08-08T06:42:24.668Z,961.85
2017-08-08T06:43:24.665Z,961.85
2017-08-08T06:44:24.664Z,961.85
2017-08-08T06:45:24.662Z,961.82
2017-08-08T06:46:24.663Z,961.8
2017-08-08T06:47:24.659Z,961.78
2017-08-08T06:48:24.662Z,961.77
2017-08-08T06:49:24.660Z,961.79
2017-08-08T06:50:24.659Z,961.75
2017-08-08T06:51:24.659Z,961.77
2017-08-08T06:52:24.658Z,961.73
2017-08-08T06:53:24.658Z,961.74
2017-08-08T06:54:24.658Z,961.7
2017-08-08T06:55:24.659Z,961.68
2017-08-08T06:56:24.657Z,961.68
2017-08-08T06:57:24.657Z,961.62
2017-08-08T06:58:24.657Z,961.64
2017-08-08T06:59:24.807Z,961.62
2017-08-08T07:00:24.657Z,961.62
2017-08-08T07:01:24.655Z,961.56
2017-08-08T07:02:24.657Z,961.56
2017-08-08T07:03:24.659Z,961.56
2017-08-08T07:04:24.658Z,961.56
2017-08-08T07:05:24.658Z,961.56
2017-08-08T07:06:24.659Z,961.63
2017-08-08T07:07:24.660Z,961.55
2017-08-08T07:08:24.662Z,961.59
2017-08-08T07:09:24.660Z,961.61
2017-08-08T07:10:24.662Z,961.61
2017-08-08T07:11:24.662Z,961.59
2017-08-08T07:12:24.662Z,961.61
2017-08-08T07:13:24.664Z,961.59
2017-08-08T07:14:24.664Z,961.62
2017-08-08T07:15:24.666Z,961.67
2017-08-08T07:16:24.667Z,961.72
2017-08-08T07:17:24.667Z,961.81
2017-08-08T07:18:24.668Z,961.93
2017-08-08T07:19:24.668Z,962.14
2017-08-08T07:20:24.768Z,962.31
2017-08-08T07:21:24.669Z,962.45
2017-08-08T07:22:24.672Z,962.7
2017-08-08T07:23:24.670Z,962.84
2017-08-08T07:24:24.771Z,963.02
2017-08-08T07:25:24.770Z,963.07
2017-08-08T07:26:24.671Z,963.09
2017-08-08T07:27:24.671Z,963.11
2017-08-08T07:28:24.672Z,963.05
2017-08-08T07:29:24.673Z,962.91
2017-08-08T07:30:24.673Z,962.84
2017-08-08T07:31:24.673Z,962.83
2017-08-08T07:32:24.673Z,962.85
2017-08-08T07:33:24.675Z,962.98
2017-08-08T07:34:24.824Z,963.18
2017-08-08T07:35:24.673Z,963.31
2017-08-08T07:36:24.673Z,963.29
2017-08-08T07:37:24.673Z,963.26
2017-08-08T07:38:24.675Z,963.14
2017-08-08T07:39:24.823Z,963.03
2017-08-08T07:40:24.673Z,963.02
2017-08-08T07:41:24.672Z,963.04
2017-08-08T07:42:24.673Z,963.17
2017-08-08T07:43:24.671Z,963.2
2017-08-08T07:44:24.672Z,963.2
2017-08-08T07:45:24.672Z,963.21
2017-08-08T07:46:24.671Z,963.2
2017-08-08T07:47:24.670Z,963.21
2017-08-08T07:48:24.670Z,963.2
2017-08-08T07:49:24.668Z,963.22
2017-08-08T07:50:24.767Z,963.18
2017-08-08T07:51:24.666Z,963.12
2017-08-08T07:52:24.667Z,963.08
2017-08-08T07:53:24.666Z,962.92
2017-08-08T07:54:24.666Z,962.86
2017-08-08T07:55:24.664Z,962.86
2017-08-08T07:56:24.663Z,962.86
2017-08-08T07:57:24.812Z,962.86
2017-08-08T07:58:24.663Z,962.84
2017-08-08T07:59:24.661Z,962.81
2017-08-08T08:00:24.660Z,962.78
2017-08-08T08:01:24.659Z,962.8
2017-08-08T08:02:24.660Z,962.76
2017-08-08T08:03:24.657Z,962.71
2017-08-08T08:04:24.657Z,962.65
2017-08-08T08:05:24.655Z,962.67
2017-08-08T08:06:24.654Z,962.65
2017-08-08T08:07:24.651Z,962.66
2017-08-08T08:08:24.653Z,962.65
2017-08-08T08:09:24.652Z,962.64
2017-08-08T08:10:24.651Z,962.56
2017-08-08T08:11:24.649Z,962.54
2017-08-08T08:12:24.647Z,962.49
2017-08-08T08:13:24.647Z,962.44
2017-08-08T08:14:24.647Z,962.41
2017-08-08T08:15:24.644Z,962.39
2017-08-08T08:16:24.646Z,962.32
2017-08-08T08:17:24.643Z,962.35
2017-08-08T08:18:24.640Z,962.4
2017-08-08T08:19:24.639Z,962.47
2017-08-08T08:20:24.639Z,962.61
2017-08-08T08:21:24.637Z,962.65
2017-08-08T08:22:24.636Z,962.71
2017-08-08T08:23:24.636Z,962.74
2017-08-08T08:24:24.635Z,962.77
2017-08-08T08:25:24.633Z,962.83
2017-08-08T08:26:24.631Z,962.9
2017-08-08T08:27:24.633Z,963.03
2017-08-08T08:28:24.630Z,963.06
2017-08-08T08:29:24.628Z,963.1
2017-08-08T08:30:24.628Z,963.05
2017-08-08T08:31:24.630Z,963
2017-08-08T08:32:24.625Z,963
2017-08-08T08:33:24.623Z,963.06
2017-08-08T08:34:24.622Z,963.07
2017-08-08T08:35:24.622Z,963.02
2017-08-08T08:36:24.622Z,963
2017-08-08T08:37:24.619Z,962.96
2017-08-08T08:38:24.621Z,963.02
2017-08-08T08:39:24.619Z,963.02
2017-08-08T08:40:24.615Z,963.04
2017-08-08T08:41:24.614Z,963.02
2017-08-08T08:42:24.613Z,963.04
2017-08-08T08:43:24.613Z,963.05
2017-08-08T08:44:24.611Z,963
2017-08-08T08:45:24.611Z,962.99
2017-08-08T08:46:24.611Z,963.04
2017-08-08T08:47:24.608Z,963.06
2017-08-08T08:48:24.607Z,963.04
2017-08-08T08:49:24.608Z,963.04
2017-08-08T08:50:24.607Z,963.07
2017-08-08T08:51:24.606Z,963.06
2017-08-08T08:52:24.705Z,963.04
2017-08-08T08:53:24.603Z,962.99
2017-08-08T08:54:24.611Z,963.01
2017-08-08T08:55:24.601Z,962.93
2017-08-08T08:56:24.599Z,962.92
2017-08-08T08:57:24.601Z,962.91
2017-08-08T08:58:24.599Z,962.88
2017-08-08T08:59:24.597Z,962.95
2017-08-08T09:00:24.596Z,962.97
2017-08-08T09:01:24.596Z,962.99
2017-08-08T09:02:24.594Z,963.04
2017-08-08T09:03:24.593Z,963.08
2017-08-08T09:04:24.593Z,963.09
2017-08-08T09:05:24.593Z,963.09
2017-08-08T09:06:24.590Z,963.12
2017-08-08T09:07:24.589Z,963.14
2017-08-08T09:08:24.589Z,963.15
2017-08-08T09:09:24.687Z,963.2
2017-08-08T09:10:24.686Z,963.2
2017-08-08T09:11:24.585Z,963.18
2017-08-08T09:12:24.585Z,963.21
2017-08-08T09:13:24.583Z,963.21
2017-08-08T09:14:24.583Z,963.21
2017-08-08T09:15:24.582Z,963.23
2017-08-08T09:16:24.580Z,963.21
2017-08-08T09:17:24.578Z,963.19
2017-08-08T09:18:24.577Z,963.18
2017-08-08T09:19:24.577Z,963.19
2017-08-08T09:20:24.576Z,963.17
2017-08-08T09:21:24.574Z,963.18
2017-08-08T09:22:24.575Z,963.11
2017-08-08T09:23:24.572Z,963.11
2017-08-08T09:24:24.571Z,963.09
2017-08-08T09:25:24.569Z,963.1
2017-08-08T09:26:24.570Z,963.04
2017-08-08T09:27:24.567Z,963.09
2017-08-08T09:28:24.566Z,963.06
2017-08-08T09:29:24.567Z,963.05
2017-08-08T09:30:24.563Z,963.08
2017-08-08T09:31:24.562Z,963.11
2017-08-08T09:32:24.578Z,963.18
2017-08-08T09:33:24.559Z,963.27
2017-08-08T09:34:24.558Z,963.32
2017-08-08T09:35:24.556Z,963.34
2017-08-08T09:36:24.554Z,963.38
2017-08-08T09:37:24.652Z,963.37
2017-08-08T09:38:24.553Z,963.37
2017-08-08T09:39:24.550Z,963.41
2017-08-08T09:40:24.550Z,963.42
2017-08-08T09:41:24.549Z,963.4
2017-08-08T09:42:24.548Z,963.34
2017-08-08T09:43:24.546Z,963.31
2017-08-08T09:44:24.545Z,963.33
2017-08-08T09:45:24.545Z,963.26
2017-08-08T09:46:24.542Z,963.27
2017-08-08T09:47:24.541Z,963.28
2017-08-08T09:48:24.541Z,963.29
2017-08-08T09:49:24.539Z,963.25
2017-08-08T09:50:24.538Z,963.28
2017-08-08T09:51:24.536Z,963.25
2017-08-08T09:52:24.537Z,963.25
2017-08-08T09:53:24.534Z,963.25
2017-08-08T09:54:24.535Z,963.36
2017-08-08T09:55:24.532Z,963.37
2017-08-08T09:56:24.631Z,963.47
2017-08-08T09:57:24.530Z,963.53
2017-08-08T09:58:24.532Z,963.55
2017-08-08T09:59:24.677Z,963.6
2017-08-08T10:00:24.525Z,963.63
2017-08-08T10:01:24.524Z,963.7
2017-08-08T10:02:24.522Z,963.72
2017-08-08T10:03:24.524Z,963.77
2017-08-08T10:04:24.520Z,963.8
2017-08-08T10:05:24.519Z,963.8
2017-08-08T10:06:24.519Z,963.89
2017-08-08T10:07:24.517Z,963.95
2017-08-08T10:08:24.517Z,964
2017-08-08T10:09:24.514Z,964.03
2017-08-08T10:10:24.513Z,964.04
2017-08-08T10:11:24.511Z,964.05
2017-08-08T10:12:24.511Z,964.07
2017-08-08T10:13:24.511Z,964.13
2017-08-08T10:14:24.507Z,964.14
2017-08-08T10:15:24.506Z,964.17
2017-08-08T10:16:24.505Z,964.21
2017-08-08T10:17:24.505Z,964.2
2017-08-08T10:18:24.505Z,964.14
2017-08-08T10:19:24.500Z,964.16
2017-08-08T10:20:24.599Z,964.14
2017-08-08T10:21:24.498Z,964.12
2017-08-08T10:22:24.500Z,964.08
2017-08-08T10:23:24.494Z,964.04
2017-08-08T10:24:24.494Z,964.02
2017-08-08T10:25:24.493Z,963.99
2017-08-08T10:26:24.490Z,964.03
2017-08-08T10:27:24.489Z,963.98
2017-08-08T10:28:24.488Z,963.93
2017-08-08T10:29:24.486Z,963.94
2017-08-08T10:30:24.485Z,963.9
2017-08-08T10:31:24.482Z,963.91
2017-08-08T10:32:24.481Z,963.81
2017-08-08T10:33:24.480Z,963.83
2017-08-08T10:34:24.478Z,963.85
2017-08-08T10:35:24.478Z,963.87
2017-08-08T10:36:24.475Z,963.89
2017-08-08T10:37:24.474Z,963.89
2017-08-08T10:38:24.472Z,963.92
2017-08-08T10:39:24.471Z,963.92
2017-08-08T10:40:24.470Z,963.92
2017-08-08T10:41:24.468Z,963.87
2017-08-08T10:42:24.466Z,963.85
2017-08-08T10:43:24.465Z,963.86
2017-08-08T10:44:24.462Z,963.86
2017-08-08T10:45:24.462Z,963.82
2017-08-08T10:46:24.460Z,963.81
2017-08-08T10:47:24.460Z,963.83
2017-08-08T10:48:24.456Z,963.77
2017-08-08T10:49:24.455Z,963.74
2017-08-08T10:50:24.454Z,963.73
2017-08-08T10:51:24.452Z,963.74
2017-08-08T10:52:24.451Z,963.68
2017-08-08T10:53:24.601Z,963.66
2017-08-08T10:54:24.449Z,963.62
2017-08-08T10:55:24.454Z,963.56
2017-08-08T10:56:24.446Z,963.57
2017-08-08T10:57:24.445Z,963.51
2017-08-08T10:58:24.445Z,963.43
2017-08-08T10:59:24.442Z,963.37
2017-08-08T11:00:24.440Z,963.29
2017-08-08T11:01:24.439Z,963.19
2017-08-08T11:02:24.439Z,963.08
2017-08-08T11:03:24.436Z,962.98
2017-08-08T11:04:24.435Z,962.99
2017-08-08T11:05:24.433Z,962.99
2017-08-08T11:06:24.432Z,963.13
2017-08-08T11:07:24.432Z,963.37
2017-08-08T11:08:24.428Z,963.54
2017-08-08T11:09:24.431Z,963.64
2017-08-08T11:10:24.427Z,963.69
2017-08-08T11:11:24.427Z,963.77
2017-08-08T11:12:24.425Z,963.77
2017-08-08T11:13:24.426Z,963.79
2017-08-08T11:14:24.422Z,963.91
2017-08-08T11:15:24.426Z,963.98
2017-08-08T11:16:24.421Z,964.1
2017-08-08T11:17:24.418Z,964.18
2017-08-08T11:18:24.417Z,964.23
2017-08-08T11:19:24.420Z,964.31
2017-08-08T11:20:24.413Z,964.33
2017-08-08T11:21:24.412Z,964.36
2017-08-08T11:22:24.410Z,964.35
2017-08-08T11:23:24.409Z,964.37
2017-08-08T11:24:24.408Z,964.39
2017-08-08T11:25:24.407Z,964.43
2017-08-08T11:26:24.407Z,964.45
2017-08-08T11:27:24.410Z,964.39
2017-08-08T11:28:24.401Z,964.36
2017-08-08T11:29:24.401Z,964.39
2017-08-08T11:30:24.398Z,964.47
2017-08-08T11:31:24.397Z,964.53
2017-08-08T11:32:24.395Z,964.54
2017-08-08T11:33:24.394Z,964.58
2017-08-08T11:34:24.393Z,964.61
2017-08-08T11:35:24.492Z,964.64
2017-08-08T11:36:24.389Z,964.62
2017-08-08T11:37:24.388Z,964.65
2017-08-08T11:38:24.386Z,964.66
2017-08-08T11:39:24.383Z,964.71
2017-08-08T11:40:24.382Z,964.72
2017-08-08T11:41:24.381Z,964.72
2017-08-08T11:42:24.380Z,964.74
2017-08-08T11:43:24.378Z,964.76
2017-08-08T11:44:24.376Z,964.78
2017-08-08T11:45:24.374Z,964.75
2017-08-08T11:46:24.375Z,964.77
2017-08-08T11:47:24.372Z,964.77
2017-08-08T11:48:24.471Z,964.74
2017-08-08T11:49:24.368Z,964.75
2017-08-08T11:50:24.466Z,964.76
2017-08-08T11:51:24.365Z,964.74
2017-08-08T11:52:24.363Z,964.76
2017-08-08T11:53:24.362Z,964.75
2017-08-08T11:54:24.358Z,964.77
2017-08-08T11:55:24.359Z,964.77
2017-08-08T11:56:24.356Z,964.78
2017-08-08T11:57:24.353Z,964.74
2017-08-08T11:58:24.352Z,964.74
2017-08-08T11:59:24.352Z,964.76
2017-08-08T12:00:24.349Z,964.76
2017-08-08T12:01:24.347Z,964.67
2017-08-08T12:02:24.346Z,964.63
2017-08-08T12:03:24.343Z,964.57
2017-08-08T12:04:24.342Z,964.6
2017-08-08T12:05:24.341Z,964.59
2017-08-08T12:06:24.337Z,964.63
2017-08-08T12:07:24.337Z,964.64
2017-08-08T12:08:24.335Z,964.6
2017-08-08T12:09:24.334Z,964.62
2017-08-08T12:10:24.331Z,964.66
2017-08-08T12:11:24.331Z,964.67
2017-08-08T12:12:24.328Z,964.75
2017-08-08T12:13:24.326Z,964.77
2017-08-08T12:14:24.331Z,964.76
2017-08-08T12:15:24.324Z,964.76
2017-08-08T12:16:24.320Z,964.78
2017-08-08T12:17:24.318Z,964.83
2017-08-08T12:18:24.318Z,964.81
2017-08-08T12:19:24.317Z,964.84
2017-08-08T12:20:24.313Z,964.89
2017-08-08T12:21:24.313Z,964.91
2017-08-08T12:22:24.310Z,964.89
2017-08-08T12:23:24.319Z,964.9
2017-08-08T12:24:24.308Z,964.85
2017-08-08T12:25:24.406Z,964.9
2017-08-08T12:26:24.304Z,964.91
2017-08-08T12:27:24.301Z,964.94
2017-08-08T12:28:24.299Z,964.92
2017-08-08T12:29:24.298Z,964.93
2017-08-08T12:30:24.295Z,964.9
2017-08-08T12:31:24.393Z,964.91